Time;durP1;ratioP1;P1;durP2;ratioP2;P2;SDS_P1;SDS_P2;PMS_P1;PMS_P2;Temp;Humidity;BMP_temperature;BMP_pressure;BME280_temperature;BME280_humidity;BME280_pressure;Samples;Min_cycle;Max_cycle;Signal;HPM_P1;HPM_P2
2024/04/25 00:01:10;;;;;;;30.17;17.38;;;4.70;99.90;;;7.84;100.00;99560.69;5388727;26;20001;-82
2024/04/25 00:03:36;;;;;;;28.08;18.25;;;4.70;99.90;;;8.18;100.00;99563.03;5331233;26;20005;-82
2024/04/25 00:06:03;;;;;;;26.42;17.02;;;4.70;99.90;;;8.84;100.00;99552.34;5329745;26;20424;-81
2024/04/25 00:08:29;;;;;;;27.30;17.30;;;4.70;99.90;;;8.26;100.00;99561.91;5334984;26;20026;-82
2024/04/25 00:10:55;;;;;;;27.13;16.88;;;4.60;99.90;;;8.99;100.00;99554.63;5338432;26;20337;-82
2024/04/25 00:13:26;;;;;;;27.80;16.63;;;4.60;99.90;;;9.44;100.00;99555.16;5338578;26;20008;-83
2024/04/25 00:15:56;;;;;;;28.13;17.35;;;4.60;99.90;;;9.72;100.00;99557.19;5339364;26;20007;-81
2024/04/25 00:18:23;;;;;;;28.48;16.70;;;4.50;99.90;;;9.45;100.00;99552.22;5339193;26;19997;-81
2024/04/25 00:20:49;;;;;;;30.13;17.67;;;4.50;99.90;;;9.20;100.00;99552.41;5338377;26;20039;-82
2024/04/25 00:23:15;;;;;;;29.92;18.48;;;4.40;99.90;;;9.36;100.00;99559.06;5339258;26;20001;-81
2024/04/25 00:25:41;;;;;;;30.83;17.77;;;4.50;99.90;;;9.41;100.00;99539.28;5322144;26;20070;-82
2024/04/25 00:28:07;;;;;;;30.73;18.58;;;4.50;99.90;;;9.49;100.00;99558.00;5336738;26;20082;-81
2024/04/25 00:30:32;;;;;;;31.70;19.25;;;4.60;99.90;;;9.63;100.00;99559.44;5331504;26;20075;-82
2024/04/25 00:32:58;;;;;;;31.52;20.00;;;4.60;99.90;;;9.20;100.00;99549.69;5339255;26;20502;-82
2024/04/25 00:35:25;;;;;;;30.10;18.88;;;4.70;99.90;;;9.52;100.00;99546.63;5354228;26;20016;-82
2024/04/25 00:37:51;;;;;;;28.73;17.60;;;4.70;99.90;;;9.42;100.00;99549.97;5337746;26;20033;-82
2024/04/25 00:40:16;;;;;;;30.30;18.50;;;4.70;99.90;;;9.50;100.00;99555.03;5339506;26;20079;-82
2024/04/25 00:42:42;;;;;;;31.45;19.02;;;4.70;99.90;;;8.80;100.00;99544.88;5337775;26;20000;-82
2024/04/25 00:45:08;;;;;;;29.58;18.23;;;4.70;99.90;;;8.94;100.00;99546.31;5367298;26;20013;-82
2024/04/25 00:47:36;;;;;;;28.73;18.02;;;4.80;99.90;;;9.02;100.00;99548.72;5355636;26;20452;-82
2024/04/25 00:50:03;;;;;;;;;;;4.80;99.90;;;8.26;100.00;99548.31;5340744;26;20001;-82
2024/04/25 00:52:31;;;;;;;29.70;17.60;;;4.80;99.90;;;8.57;100.00;99544.56;5339623;26;19966;-81
2024/04/25 00:54:57;;;;;;;31.98;19.10;;;4.80;99.90;;;8.23;100.00;99537.91;5342578;26;19997;-82
2024/04/25 00:57:25;;;;;;;31.75;19.15;;;4.80;99.90;;;8.45;100.00;99540.94;5321060;26;20026;-81
2024/04/25 00:59:58;;;;;;;33.45;21.73;;;4.80;99.90;;;8.28;100.00;99541.56;5320271;26;20061;-81
2024/04/25 01:02:26;;;;;;;29.60;17.70;;;4.70;99.90;;;8.90;100.00;99535.09;5321596;26;20033;-82
2024/04/25 01:04:56;;;;;;;32.78;20.35;;;4.70;99.90;;;8.12;100.00;99544.94;5333643;26;19997;-81
2024/04/25 01:07:22;;;;;;;31.20;18.92;;;4.70;99.90;;;8.37;100.00;99542.09;5371522;26;20320;-83
2024/04/25 01:09:48;;;;;;;31.50;19.63;;;4.70;99.90;;;8.52;100.00;99544.44;5343633;26;20005;-81
2024/04/25 01:12:14;;;;;;;31.35;19.40;;;4.70;99.90;;;8.11;100.00;99543.28;5339711;26;20001;-83
2024/04/25 01:14:39;;;;;;;31.35;17.65;;;4.70;99.90;;;7.72;100.00;99538.06;5341521;26;19997;-79
2024/04/25 01:17:06;;;;;;;32.22;19.67;;;4.70;99.90;;;8.00;100.00;99547.56;5361351;26;20001;-81
2024/04/25 01:19:31;;;;;;;30.13;18.45;;;4.70;99.90;;;8.41;100.00;99537.03;5339865;26;20005;-83
2024/04/25 01:21:57;;;;;;;32.67;18.63;;;4.80;99.90;;;8.78;100.00;99543.22;5340870;26;20432;-82
2024/04/25 01:24:28;;;;;;;34.33;20.60;;;4.80;99.90;;;7.94;100.00;99538.44;5339452;26;20009;-80
2024/04/25 01:26:56;;;;;;;36.63;22.08;;;4.80;99.90;;;7.63;100.00;99538.34;5341709;26;20029;-82
2024/04/25 01:29:23;;;;;;;35.80;21.98;;;4.80;99.90;;;8.26;100.00;99545.59;5337550;26;20698;-82
2024/04/25 01:31:50;;;;;;;35.95;22.25;;;4.80;99.90;;;7.66;100.00;99544.38;5339915;26;20033;-80
2024/04/25 01:34:17;;;;;;;33.40;20.02;;;4.80;99.90;;;7.69;100.00;99530.34;5341192;26;20070;-80
2024/04/25 01:36:43;;;;;;;36.30;22.33;;;4.80;99.90;;;7.47;100.00;99536.22;5340045;26;19994;-80
2024/04/25 01:39:10;;;;;;;32.00;19.27;;;4.70;99.90;;;7.43;100.00;99527.69;5341994;26;20012;-81
2024/04/25 01:41:36;;;;;;;36.55;22.33;;;4.80;99.90;;;7.49;100.00;99542.25;5342966;26;20033;-83
2024/04/25 01:44:03;;;;;;;37.00;22.77;;;4.70;99.90;;;7.64;100.00;99528.31;5342623;26;20001;-81
2024/04/25 01:46:28;;;;;;;36.28;22.33;;;4.70;99.90;;;7.74;100.00;99533.22;5342872;26;20004;-81
2024/04/25 01:48:54;;;;;;;33.90;21.13;;;4.70;99.90;;;7.60;100.00;99530.63;5341261;26;20087;-81
2024/04/25 01:51:21;;;;;;;34.00;21.05;;;4.70;99.90;;;7.17;100.00;99526.06;5330674;26;20397;-81
2024/04/25 01:53:47;;;;;;;35.80;22.05;;;4.70;99.90;;;7.76;100.00;99536.56;5342549;26;20012;-80
2024/04/25 01:56:13;;;;;;;37.72;21.90;;;4.80;99.90;;;8.23;100.00;99532.47;5342150;26;20028;-82
2024/04/25 01:58:39;;;;;;;34.97;21.75;;;4.80;99.90;;;7.84;100.00;99530.00;5343117;26;20425;-83
2024/04/25 02:01:05;;;;;;;35.72;21.23;;;4.80;99.90;;;7.76;100.00;99514.81;5342062;26;20315;-83
2024/04/25 02:03:31;;;;;;;37.50;23.35;;;4.80;99.90;;;7.90;100.00;99531.81;5340108;26;20102;-81
2024/04/25 02:05:57;;;;;;;34.45;20.67;;;4.80;99.90;;;8.15;100.00;99525.44;5340536;26;20480;-82
2024/04/25 02:08:23;;;;;;;31.05;19.85;;;4.80;99.90;;;7.97;100.00;99531.72;5341417;26;20016;-82
2024/04/25 02:10:50;;;;;;;44.83;23.00;;;4.80;99.90;;;7.96;100.00;99530.06;5342446;26;20005;-83
2024/04/25 02:13:17;;;;;;;36.13;21.60;;;4.80;99.90;;;7.59;100.00;99534.41;5342552;26;20353;-80
2024/04/25 02:15:43;;;;;;;41.17;24.20;;;4.80;99.90;;;8.11;100.00;99535.94;5340382;26;20007;-82
2024/04/25 02:18:09;;;;;;;36.45;22.33;;;4.80;99.90;;;7.65;100.00;99527.25;5342376;26;19999;-82
2024/04/25 02:26:09;;;;;;;31.92;21.08;;;4.70;99.90;;;7.46;100.00;99538.09;5326244;26;20461;-82
2024/04/25 02:28:38;;;;;;;30.90;18.85;;;4.70;99.90;;;8.18;100.00;99530.41;5343426;26;20008;-80
2024/04/25 02:31:04;;;;;;;29.15;17.77;;;4.70;99.90;;;7.88;100.00;99525.78;5334938;26;20009;-82
2024/04/25 02:33:30;;;;;;;27.95;17.23;;;4.70;99.90;;;7.85;100.00;99535.19;5341373;26;20011;-81
2024/04/25 02:35:56;;;;;;;30.15;18.27;;;4.60;99.90;;;7.79;100.00;99533.38;5343160;26;20083;-81
2024/04/25 02:38:22;;;;;;;27.20;16.35;;;4.60;99.90;;;7.52;100.00;99536.38;5341394;26;20011;-82
2024/04/25 02:40:47;;;;;;;26.73;15.88;;;4.60;99.90;;;7.49;100.00;99531.41;5341967;26;20021;-81
2024/04/25 02:43:13;;;;;;;24.42;15.02;;;4.60;99.90;;;7.84;100.00;99528.09;5341672;26;19993;-81
2024/04/25 02:45:39;;;;;;;24.73;14.88;;;4.60;99.90;;;7.47;100.00;99536.22;5338351;26;20042;-80
2024/04/25 02:48:07;;;;;;;22.25;13.82;;;4.50;99.90;;;7.53;100.00;99535.31;5341004;26;20321;-81
2024/04/25 02:50:32;;;;;;;24.02;14.25;;;4.50;99.90;;;7.21;100.00;99540.84;5340204;26;20005;-81
2024/04/25 02:52:58;;;;;;;26.63;14.25;;;4.50;99.90;;;8.01;100.00;99543.78;5341656;26;20007;-80
2024/04/25 02:55:23;;;;;;;25.77;15.25;;;4.50;99.90;;;7.61;100.00;99543.16;5339889;26;20001;-80
2024/04/25 02:57:51;;;;;;;23.35;14.23;;;4.40;99.90;;;7.53;100.00;99538.03;5341197;26;20070;-81
2024/04/25 03:00:17;;;;;;;27.35;15.45;;;4.50;99.90;;;7.73;100.00;99542.44;5339180;26;20388;-81
2024/04/25 03:02:43;;;;;;;29.67;16.33;;;4.50;99.90;;;7.76;100.00;99536.56;5340868;26;20267;-81
2024/04/25 03:05:08;;;;;;;25.25;14.95;;;4.50;99.90;;;8.01;100.00;99543.78;5341463;26;20094;-81
2024/04/25 03:07:34;;;;;;;24.23;15.13;;;4.40;99.90;;;8.57;100.00;99546.47;5339656;26;20031;-80
2024/04/25 03:10:00;;;;;;;28.65;15.82;;;4.50;99.90;;;8.62;100.00;99541.16;5341276;26;20025;-81
2024/04/25 03:12:27;;;;;;;26.35;15.15;;;4.40;99.90;;;8.09;100.00;99546.19;5340148;26;20003;-82
2024/04/25 03:14:53;;;;;;;29.85;15.43;;;4.40;99.90;;;7.82;100.00;99530.22;5342236;26;20016;-80
2024/04/25 03:17:18;;;;;;;25.80;14.68;;;4.40;99.90;;;7.83;100.00;99541.91;5341743;26;20428;-81
2024/04/25 03:19:44;;;;;;;26.38;14.73;;;4.30;99.90;;;8.44;100.00;99537.38;5342539;26;20033;-79
2024/04/25 03:22:10;;;;;;;27.70;14.90;;;4.30;99.90;;;8.27;100.00;99539.09;5340820;26;20008;-79
2024/04/25 03:24:36;;;;;;;23.63;14.05;;;4.20;99.90;;;8.01;100.00;99544.59;5339201;26;19996;-80
2024/04/25 03:27:01;;;;;;;27.63;14.20;;;4.20;99.90;;;7.65;100.00;99540.00;5336237;26;20005;-80
2024/04/25 03:29:27;;;;;;;23.45;12.88;;;4.20;99.90;;;7.45;100.00;99541.03;5337162;26;20015;-80
2024/04/25 03:31:53;;;;;;;24.80;12.88;;;4.20;99.90;;;7.97;100.00;99546.13;5341367;26;20211;-80
2024/04/25 03:34:20;;;;;;;23.73;12.75;;;4.10;99.90;;;7.22;100.00;99542.50;5340182;26;20008;-81
2024/04/25 03:36:49;;;;;;;23.15;13.05;;;4.20;99.90;;;7.36;100.00;99536.94;5363022;26;20095;-80
2024/04/25 03:39:20;;;;;;;26.33;13.50;;;4.10;99.90;;;7.40;100.00;99546.28;5364290;26;20020;-81
2024/04/25 03:41:49;;;;;;;26.50;12.57;;;4.10;99.90;;;6.98;100.00;99536.84;5334303;26;20008;-80
2024/04/25 03:44:15;;;;;;;26.98;13.05;;;4.10;99.90;;;7.36;100.00;99542.34;5324051;26;20012;-80
2024/04/25 03:46:41;;;;;;;23.10;12.52;;;4.10;99.90;;;7.55;100.00;99551.34;5341478;26;20004;-80
2024/04/25 03:49:08;;;;;;;27.85;12.25;;;4.00;99.90;;;7.53;100.00;99538.03;5341814;26;20444;-79
2024/04/25 03:51:35;;;;;;;28.65;12.60;;;4.10;99.90;;;8.13;100.00;99550.13;5338213;26;20016;-80
2024/04/25 03:54:02;;;;;;;22.02;11.65;;;4.00;99.90;;;7.91;100.00;99534.28;5335368;26;19994;-79
2024/04/25 03:56:27;;;;;;;23.55;12.95;;;4.10;99.90;;;7.81;100.00;99550.28;5340928;26;20760;-80
2024/04/25 03:58:53;;;;;;;23.30;12.88;;;4.00;99.90;;;7.34;100.00;99546.13;5338293;26;20037;-80
2024/04/25 04:01:19;;;;;;;24.80;12.75;;;4.00;99.90;;;7.13;100.00;99550.06;5342336;26;20037;-81
2024/04/25 04:03:44;;;;;;;22.88;13.45;;;4.00;99.90;;;7.47;100.00;99547.88;5343964;26;19993;-80
2024/04/25 04:06:10;;;;;;;23.55;12.20;;;4.00;99.90;;;7.77;100.00;99549.88;5335542;26;20001;-81
2024/04/25 04:08:36;;;;;;;22.58;12.25;;;3.90;99.90;;;7.70;100.00;99553.75;5341004;26;20015;-81
2024/04/25 04:11:02;;;;;;;24.25;13.25;;;3.90;99.90;;;7.22;100.00;99553.34;5343508;26;20020;-80
2024/04/25 04:13:28;;;;;;;25.00;12.63;;;3.90;99.90;;;7.04;100.00;99549.50;5353200;26;20013;-81
2024/04/25 04:15:53;;;;;;;23.27;13.05;;;3.90;99.90;;;7.36;100.00;99555.94;5357037;26;19997;-80
2024/04/25 04:18:19;;;;;;;20.70;11.88;;;3.90;99.90;;;7.10;100.00;99552.38;5362346;26;19997;-81
2024/04/25 04:20:46;;;;;;;22.23;12.63;;;3.80;99.90;;;7.01;100.00;99557.25;5343713;26;20044;-81
2024/04/25 04:23:12;;;;;;;24.20;12.27;;;3.80;99.90;;;7.62;100.00;99560.28;5344287;26;20008;-80
2024/04/25 04:25:38;;;;;;;23.52;12.10;;;3.80;99.90;;;7.51;100.00;99558.28;5334885;26;20351;-81
2024/04/25 04:28:04;;;;;;;21.35;11.55;;;3.90;99.90;;;7.55;100.00;99557.63;5342259;26;20024;-81
2024/04/25 04:30:29;;;;;;;22.15;13.02;;;3.90;99.90;;;7.13;100.00;99562.78;5342147;26;20350;-81
2024/04/25 04:32:55;;;;;;;25.85;12.07;;;3.90;99.90;;;7.43;100.00;99543.97;5340286;26;20011;-84
2024/04/25 04:35:21;;;;;;;24.45;12.23;;;3.90;99.90;;;7.02;100.00;99558.91;5340557;26;20313;-81
2024/04/25 04:37:47;;;;;;;21.35;11.70;;;4.00;99.90;;;6.79;100.00;99559.50;5329499;26;20001;-81
2024/04/25 04:40:12;;;;;;;20.25;12.52;;;4.00;99.90;;;6.81;100.00;99576.38;5337689;26;20475;-82
2024/04/25 04:42:38;;;;;;;23.35;11.60;;;4.00;99.90;;;7.04;100.00;99565.78;5333418;26;20005;-81
2024/04/25 04:45:04;;;;;;;19.50;11.30;;;4.00;99.90;;;7.46;100.00;99575.25;5332725;26;20437;-79
2024/04/25 04:47:30;;;;;;;22.17;10.73;;;4.00;99.90;;;7.40;100.00;99565.28;5326402;26;20011;-79
2024/04/25 04:49:55;;;;;;;19.23;10.60;;;4.00;99.90;;;7.29;100.00;99575.81;5335244;26;19996;-83
2024/04/25 04:52:21;;;;;;;19.65;10.52;;;4.00;99.90;;;7.56;100.00;99575.59;5332503;26;20023;-82
2024/04/25 04:54:47;;;;;;;21.58;10.90;;;4.00;99.90;;;7.60;100.00;99568.66;5334882;26;20041;-81
2024/04/25 04:57:12;;;;;;;18.33;9.77;;;4.00;99.90;;;7.68;100.00;99572.13;5341402;26;20037;-81
2024/04/25 04:59:38;;;;;;;20.17;10.80;;;4.10;99.90;;;7.61;100.00;99569.50;5340884;26;20028;-81
2024/04/25 05:02:04;;;;;;;20.73;10.63;;;4.10;99.90;;;7.52;100.00;99577.09;5330529;26;20005;-85
2024/04/25 05:04:30;;;;;;;19.20;11.18;;;4.20;99.90;;;7.66;100.00;99580.50;5336983;26;20350;-82
2024/04/25 05:06:56;;;;;;;21.55;11.15;;;4.20;99.90;;;7.79;100.00;99576.81;5341822;26;20007;-82
2024/04/25 05:09:22;;;;;;;20.10;10.77;;;4.30;99.90;;;7.34;100.00;99586.81;5343298;26;20424;-81
2024/04/25 05:11:47;;;;;;;18.52;9.93;;;4.30;99.90;;;7.47;100.00;99585.06;5338561;26;19997;-82
2024/04/25 05:14:13;;;;;;;22.83;10.50;;;4.30;99.90;;;7.96;100.00;99582.50;5340900;26;20028;-81
2024/04/25 05:16:41;;;;;;;18.92;10.35;;;4.40;99.90;;;8.13;100.00;99584.63;5343269;26;20001;-83
2024/04/25 05:19:06;;;;;;;19.65;10.05;;;4.60;99.90;;;8.24;100.00;99586.56;5339281;26;20001;-81
2024/04/25 05:21:32;;;;;;;17.63;10.13;;;4.60;99.90;;;8.47;100.00;99588.56;5333845;26;20074;-82
2024/04/25 05:24:01;;;;;;;17.83;10.68;;;4.70;99.90;;;7.77;100.00;99595.22;5338182;26;20005;-82
2024/04/25 05:26:27;;;;;;;17.15;9.93;;;4.70;99.90;;;8.16;100.00;99595.84;5336687;26;20052;-84
2024/04/25 05:28:53;;;;;;;16.60;10.65;;;4.80;99.90;;;7.92;100.00;99595.69;5342458;26;20461;-86
2024/04/25 05:31:19;;;;;;;21.10;11.20;;;4.80;99.90;;;7.87;100.00;99603.69;5334631;26;19997;-84
2024/04/25 05:33:49;;;;;;;16.63;10.27;;;4.80;99.90;;;8.29;100.00;99599.47;5343313;26;20070;-84
2024/04/25 05:36:15;;;;;;;18.30;10.23;;;4.90;99.90;;;8.40;100.00;99587.81;5310337;26;19997;-82
2024/04/25 05:38:41;;;;;;;15.70;9.25;;;4.90;99.90;;;7.85;100.00;99594.94;5340921;26;20444;-83
2024/04/25 05:41:07;;;;;;;16.98;9.55;;;4.90;99.90;;;8.41;100.00;99603.06;5337721;26;20169;-82
2024/04/25 05:43:32;;;;;;;15.98;9.73;;;5.00;99.90;;;8.10;100.00;99594.03;5340498;26;20458;-83
2024/04/25 05:45:58;;;;;;;15.82;10.35;;;4.90;99.90;;;8.23;100.00;99598.50;5335794;26;19997;-81
2024/04/25 05:48:31;;;;;;;15.32;9.73;;;4.90;99.90;;;7.86;100.00;99590.34;5338016;26;20143;-82
2024/04/25 05:51:00;;;;;;;16.60;10.20;;;4.90;99.90;;;8.52;100.00;99606.94;5339603;26;20032;-80
2024/04/25 05:53:26;;;;;;;15.73;9.68;;;4.90;99.90;;;8.30;100.00;99601.13;5368074;26;20102;-85
2024/04/25 05:55:52;;;;;;;16.20;9.95;;;5.00;99.90;;;7.62;100.00;99603.72;5338184;26;20008;-84
2024/04/25 05:58:17;;;;;;;16.38;8.65;;;4.90;99.90;;;8.51;100.00;99601.75;5326406;26;20037;-83
2024/04/25 06:00:43;;;;;;;16.42;8.27;;;4.90;99.90;;;7.95;100.00;99596.28;5336756;26;20037;-82
2024/04/25 06:03:09;;;;;;;14.65;9.10;;;4.90;99.90;;;8.63;100.00;99599.91;5338920;26;20442;-83
2024/04/25 06:05:35;;;;;;;17.58;9.60;;;5.00;99.90;;;9.14;100.00;99591.44;5318583;26;20033;-84
2024/04/25 06:08:01;;;;;;;15.55;8.90;;;5.10;99.90;;;9.36;97.08;99602.59;5352550;26;20087;-83
2024/04/25 06:10:27;;;;;;;15.32;8.95;;;5.10;99.90;;;9.41;96.85;99604.63;5340471;26;20004;-85
2024/04/25 06:12:53;;;;;;;12.15;8.70;;;5.20;99.90;;;8.50;97.38;99606.34;5325518;26;20960;-84
2024/04/25 06:15:18;;;;;;;18.38;9.00;;;5.20;99.90;;;8.90;99.76;99607.69;5340551;26;19992;-86
2024/04/25 06:17:44;;;;;;;12.43;8.55;;;5.20;99.90;;;9.19;97.33;99599.72;5340930;26;20102;-84
2024/04/25 06:20:11;;;;;;;13.07;8.15;;;5.40;99.90;;;9.31;97.24;99600.59;5343356;26;20000;-84
2024/04/25 06:22:38;;;;;;;14.30;8.90;;;5.40;99.90;;;9.32;98.23;99604.97;5341712;26;20030;-83
2024/04/25 06:25:05;;;;;;;14.82;8.77;;;5.40;99.90;;;8.98;100.00;99612.81;5341610;26;19993;-84
2024/04/25 06:27:31;;;;;;;16.90;8.45;;;5.30;99.90;;;9.23;99.17;99614.53;5343115;26;20015;-86
2024/04/25 06:29:57;;;;;;;11.70;8.05;;;5.30;99.90;;;8.94;98.61;99619.78;5319453;26;20031;-84
2024/04/25 06:32:23;;;;;;;11.85;8.18;;;5.40;99.90;;;9.25;96.07;99623.28;5339035;26;20377;-83
2024/04/25 06:34:50;;;;;;;12.35;7.82;;;5.50;99.90;;;9.28;95.56;99622.84;5342004;26;20000;-83
2024/04/25 06:37:19;;;;;;;13.77;8.23;;;5.50;99.90;;;8.94;99.29;99625.22;5341526;26;20044;-86
2024/04/25 06:39:46;;;;;;;11.52;8.15;;;5.60;99.90;;;8.91;95.19;99622.97;5342372;26;20067;-85
2024/04/25 06:42:12;;;;;;;12.73;8.15;;;5.60;99.90;;;8.36;100.00;99630.13;5322639;26;20429;-83
2024/04/25 06:44:39;;;;;;;12.35;8.52;;;5.70;99.90;;;9.42;99.85;99618.03;5334480;26;19993;-84
2024/04/25 06:47:05;;;;;;;12.27;8.18;;;5.80;99.90;;;9.25;93.57;99627.91;5317307;26;20075;-86
2024/04/25 06:49:32;;;;;;;13.25;8.68;;;5.80;99.90;;;9.56;91.63;99615.06;5334295;26;20007;-84
2024/04/25 06:51:58;;;;;;;13.00;8.73;;;5.80;99.90;;;9.17;93.35;99629.06;5339724;26;20008;-85
2024/04/25 06:54:24;;;;;;;12.65;8.35;;;5.80;99.90;;;9.35;96.00;99637.19;5290463;27;20009;-85
2024/04/25 06:56:50;;;;;;;13.13;8.65;;;5.90;99.90;;;9.69;90.20;99622.19;5327187;26;20001;-84
2024/04/25 06:59:16;;;;;;;14.00;8.82;;;6.00;99.90;;;9.06;91.00;99626.09;5340378;26;20074;-83
2024/04/25 07:01:41;;;;;;;13.02;8.50;;;6.00;99.90;;;9.17;89.29;99624.47;5342116;26;19998;-85
2024/04/25 07:04:07;;;;;;;14.23;8.35;;;6.00;99.90;;;8.72;96.15;99643.94;5339511;26;20432;-83
2024/04/25 07:06:33;;;;;;;12.02;8.48;;;5.90;99.90;;;9.30;93.78;99628.88;5341095;26;20089;-84
2024/04/25 07:09:01;;;;;;;12.38;8.93;;;6.00;99.90;;;8.92;92.86;99638.22;5361920;26;20130;-83
2024/04/25 07:11:28;;;;;;;13.55;9.05;;;6.00;99.90;;;9.29;92.00;99637.28;5342315;26;20013;-85
2024/04/25 07:13:54;;;;;;;12.98;9.00;;;6.00;99.90;;;9.07;92.21;99633.19;5341298;26;20459;-84
2024/04/25 07:16:20;;;;;;;13.55;8.63;;;5.90;99.90;;;8.70;98.11;99638.72;5342301;26;20012;-84
2024/04/25 07:18:45;;;;;;;15.85;8.90;;;5.70;99.90;;;8.63;96.45;99643.41;5343239;26;19997;-82
2024/04/25 07:21:11;;;;;;;12.18;8.63;;;5.80;99.90;;;8.63;100.00;99618.94;5342330;26;20004;-82
2024/04/25 07:23:37;;;;;;;14.38;10.10;;;5.80;99.90;;;9.09;98.51;99634.84;5334495;26;20435;-85
2024/04/25 07:26:03;;;;;;;13.55;10.00;;;6.10;99.90;;;9.84;92.63;99630.72;5340972;26;20032;-86
2024/04/25 07:28:34;;;;;;;13.88;9.15;;;;;;;10.34;88.33;99634.81;5341018;26;20015;-84
2024/04/25 07:31:00;;;;;;;12.98;9.20;;;6.50;99.90;;;9.07;90.58;99629.63;5338691;26;20432;-85
2024/04/25 07:33:25;;;;;;;12.50;8.63;;;6.70;99.90;;;8.37;94.64;99656.22;5338853;26;20004;-85
2024/04/25 07:35:51;;;;;;;12.75;9.13;;;6.40;99.90;;;9.23;91.01;99633.56;5336534;26;19997;-83
2024/04/25 07:38:17;;;;;;;19.77;10.57;;;6.40;99.90;;;8.34;94.18;99643.09;5334561;26;20033;-82
2024/04/25 07:40:42;;;;;;;15.02;9.82;;;6.20;99.90;;;9.78;95.80;99640.66;5369281;26;20464;-82
2024/04/25 07:43:08;;;;;;;16.10;10.75;;;6.30;99.90;;;10.11;86.98;99629.38;5339405;26;20039;-84
2024/04/25 07:45:34;;;;;;;17.92;11.10;;;6.60;99.90;;;10.46;83.76;99636.69;5337419;26;19993;-84
2024/04/25 07:47:59;;;;;;;15.45;9.73;;;6.80;99.90;;;10.08;84.08;99647.06;5366217;26;20428;-82
2024/04/25 07:50:25;;;;;;;15.80;9.93;;;6.80;99.90;;;9.58;86.50;99643.72;5331662;26;20177;-83
2024/04/25 07:52:51;;;;;;;15.07;9.90;;;6.70;99.90;;;9.48;91.18;99654.34;5335228;26;20015;-85
2024/04/25 07:55:16;;;;;;;15.90;9.40;;;6.50;99.90;;;9.78;88.41;99640.66;5343460;26;20025;-88
2024/04/25 07:57:42;;;;;;;16.73;10.45;;;6.80;99.90;;;8.74;93.80;99655.41;5336081;26;20325;-83
2024/04/25 08:00:09;;;;;;;15.95;10.70;;;6.50;99.90;;;9.30;90.77;99641.66;5336330;26;20037;-82
2024/04/25 08:02:37;;;;;;;;;;;6.40;99.90;;;9.29;94.24;99643.56;5331995;26;20087;-88
2024/04/25 08:05:07;;;;;;;15.23;10.32;;;6.30;99.90;;;9.85;90.46;99647.88;5339345;26;19926;-87
2024/04/25 08:07:37;;;;;;;15.20;9.63;;;6.50;99.90;;;8.41;97.35;99653.91;5342599;26;20449;-85
2024/04/25 08:10:03;;;;;;;16.52;10.25;;;6.20;99.90;;;10.27;89.58;99655.94;5315402;26;19997;-86
2024/04/25 08:12:30;;;;;;;14.55;9.48;;;6.60;99.90;;;9.66;86.92;99645.25;5325740;26;20608;-85
2024/04/25 08:14:56;;;;;;;13.57;8.32;;;6.90;99.90;;;9.44;88.21;99655.88;5335439;26;20414;-86
2024/04/25 08:17:22;;;;;;;14.05;8.70;;;6.90;99.90;;;9.59;83.95;99647.25;5331753;26;19997;-86
2024/04/25 08:19:52;;;;;;;14.55;9.18;;;7.00;99.90;;;9.87;86.48;99652.03;5334173;26;20011;-85
2024/04/25 08:22:20;;;;;;;14.05;9.48;;;6.90;99.90;;;8.71;91.15;99670.28;5333513;26;20083;-89
2024/04/25 08:24:45;;;;;;;16.40;10.38;;;6.60;99.90;;;9.75;86.68;99651.19;5334974;26;20005;-91
2024/04/25 08:27:11;;;;;;;14.23;9.52;;;6.80;99.90;;;9.27;88.02;99651.09;5325824;26;20329;-87
2024/04/25 08:29:37;;;;;;;15.38;9.57;;;6.80;99.90;;;9.91;86.82;99653.22;5337176;26;20009;-84
2024/04/25 08:32:02;;;;;;;16.52;9.50;;;7.10;99.90;;;10.68;82.47;99649.69;5330599;26;20037;-84
2024/04/25 08:34:28;;;;;;;13.02;8.85;;;7.60;99.90;;;10.60;78.50;99648.16;5332396;26;20005;-86
2024/04/25 08:36:54;;;;;;;14.00;8.82;;;7.90;99.90;;;11.32;75.70;99638.59;5326518;26;20356;-88
2024/04/25 08:39:21;;;;;;;13.80;8.98;;;8.10;99.90;;;12.26;71.88;99631.88;5331205;26;20049;-87
2024/04/25 08:41:48;;;;;;;14.52;8.32;;;8.50;99.90;;;12.89;64.95;99620.56;5334282;26;20034;-89
2024/04/25 08:44:15;;;;;;;11.07;8.30;;;9.10;99.90;;;12.16;64.40;99619.69;5330487;26;20045;-86
2024/04/25 08:46:45;;;;;;;12.30;8.00;;;9.40;99.90;;;11.98;66.34;99628.19;5337746;26;20297;-84
2024/04/25 08:49:12;;;;;;;12.60;7.88;;;9.30;99.90;;;13.25;61.99;99609.97;5350870;26;20440;-84
2024/04/25 08:51:39;;;;;;;10.93;7.38;;;9.70;99.90;;;13.19;61.71;99613.75;5342443;26;20021;-83
2024/04/25 08:54:07;;;;;;;14.38;8.65;;;9.70;99.90;;;11.04;65.11;99620.38;5381521;26;20411;-81
2024/04/25 08:56:33;;;;;;;13.13;8.30;;;9.00;99.90;;;11.21;68.34;99625.88;5349817;26;20001;-88
2024/04/25 08:58:59;;;;;;;10.95;7.97;;;8.70;99.90;;;11.06;71.44;99631.88;5332456;26;20008;-86
2024/04/25 09:01:26;;;;;;;11.48;7.05;;;8.40;99.90;;;11.02;67.31;99628.81;5360797;26;19997;-88
2024/04/25 09:03:54;;;;;;;11.52;7.25;;;8.30;99.90;;;11.53;66.90;99630.75;5325341;26;20011;-85
2024/04/25 09:06:21;;;;;;;11.00;7.10;;;8.40;99.90;;;12.15;65.42;99619.97;5322192;26;20005;-87
2024/04/25 09:08:48;;;;;;;10.23;7.30;;;8.50;99.90;;;10.49;67.40;99626.16;5334295;26;20432;-84
2024/04/25 09:11:21;;;;;;;11.02;7.18;;;8.40;99.90;;;11.92;66.67;99628.06;5330244;26;20034;-89
2024/04/25 09:13:54;;;;;;;9.85;6.35;;;8.60;99.90;;;12.68;60.19;99594.91;5343896;26;20033;-91
2024/04/25 09:16:20;;;;;;;11.88;5.82;;;8.90;99.90;;;13.76;57.38;99589.56;5334315;26;20001;-83
2024/04/25 09:18:49;;;;;;;10.95;6.43;;;9.60;99.90;;;15.12;54.76;99587.13;5332877;26;19997;-89
2024/04/25 09:21:16;;;;;;;8.27;5.90;;;;;;;15.21;53.59;99568.16;5340995;26;19993;-89
2024/04/25 09:23:42;;;;;;;8.70;6.18;;;;;;;14.90;52.49;99568.16;5353218;26;20008;-88
2024/04/25 09:26:13;;;;;;;8.98;5.72;;;10.30;99.90;;;15.10;52.47;99562.66;5350531;26;19996;-91
2024/04/25 09:28:43;;;;;;;10.95;7.18;;;11.10;99.90;;;14.85;51.21;99543.41;5351292;26;20008;-91
2024/04/25 09:31:09;;;;;;;6.80;4.40;;;11.10;99.90;;;15.22;51.33;99547.84;5339324;26;20495;-90
2024/04/25 09:33:35;;;;;;;6.13;4.53;;;11.10;99.90;;;14.10;50.53;99537.13;5350037;26;20047;-87
2024/04/25 09:36:01;;;;;;;9.70;5.30;;;10.80;99.90;;;14.35;53.56;99565.78;5351539;26;20001;-90
2024/04/25 09:38:27;;;;;;;8.35;4.75;;;10.50;99.90;;;13.84;53.38;99566.31;5337404;26;20444;-89
2024/04/25 09:40:56;;;;;;;7.68;4.72;;;10.20;99.90;;;13.38;56.85;99595.00;5351871;26;20000;-90
2024/04/25 09:43:24;;;;;;;9.18;5.13;;;9.60;99.90;;;12.88;59.30;99627.97;5352686;26;20004;-90
2024/04/25 09:45:51;;;;;;;7.28;4.50;;;9.20;99.90;;;12.20;67.08;99661.03;5344512;26;20004;-86
2024/04/25 09:48:19;;;;;;;6.60;3.67;;;8.50;99.90;;;11.35;70.59;99657.22;5342622;26;20008;-83
2024/04/25 09:50:53;;;;;;;;;;;7.90;99.90;;;11.78;70.99;99648.66;5342532;26;20000;-83
2024/04/25 09:53:27;;;;;;;7.95;4.72;;;7.50;99.90;;;11.63;75.31;99663.69;5352298;26;20388;-83
2024/04/25 09:55:53;;;;;;;8.07;5.07;;;7.20;99.90;;;10.67;79.29;99654.34;5341389;26;19994;-83
2024/04/25 09:59:05;;;;;;;8.45;5.60;;;6.90;99.90;;;11.00;84.34;99663.69;5336620;26;20078;-82
2024/04/25 10:01:31;;;;;;;6.72;4.00;;;6.70;99.90;;;9.07;92.11;99660.41;5329680;26;20078;-82
2024/04/25 10:03:58;;;;;;;6.53;2.00;;;6.40;99.90;;;8.11;100.00;99665.50;5328160;26;20005;-83
2024/04/25 10:06:25;;;;;;;6.50;1.70;;;5.70;99.90;;;8.28;100.00;99680.16;5306682;26;20033;-83
2024/04/25 10:08:51;;;;;;;4.15;1.17;;;5.30;99.90;;;7.56;100.00;99684.16;5329390;26;20074;-85
2024/04/25 10:11:17;;;;;;;7.50;1.52;;;4.90;99.90;;;7.78;100.00;99672.91;5326335;26;20006;-84
2024/04/25 10:13:50;;;;;;;8.25;1.63;;;4.80;99.90;;;8.39;100.00;99659.56;5331473;26;20034;-85
2024/04/25 10:16:18;;;;;;;7.45;1.38;;;4.70;99.90;;;8.17;100.00;99659.19;5331714;26;20432;-84
2024/04/25 10:18:52;;;;;;;3.22;1.30;;;4.60;99.90;;;8.55;100.00;99657.31;5341153;26;20008;-83
2024/04/25 10:21:20;;;;;;;6.35;1.35;;;4.70;99.90;;;8.91;100.00;99661.03;5340861;26;20029;-82